Main page
METAR-TAF:

METAR-TAF

Airports :

Ormond Beach Municipal Airport

Ormond Beach, Florida, United States

latitude: 29-18-04N, longitude: 081-06-49W, elevation: 30 ft

Current weather observation

The report was made 17 minutes ago, at 12:50 UTC
Wind 7 mph from the South/Southwest
Temperature 75°F
Humidity 94%
Pressure 30.07 in. Hg
Visibility: 7 miles
Few clouds at a height of 1000 ft

METAR: KOMN 281250Z 20006KT 7SM FEW010 24/23 A3007

Time: 09:07 (13:07 UTC)


TAF: missing

Weather observations and forecasts of more than 4000 airports (METAR and TAF reports).

The available stations are represented by yellow and red dots on the map.

Hover mouse over dot to see the name of the station.

Then click to see weather observations and forecasts.

To change the map : click on the green buttons with a black cross to zoom in, on the green button with a dash to zoom out, or on the green arrows for adjacent maps.


METAR-TAF: